Time;durP1;ratioP1;P1;durP2;ratioP2;P2;SDS_P1;SDS_P2;PMS_P1;PMS_P2;Temp;Humidity;BMP_temperature;BMP_pressure;BME280_temperature;BME280_humidity;BME280_pressure;Samples;Min_cycle;Max_cycle;Signal;HPM_P1;HPM_P2
2021/06/07 00:01:39;;;;;;;3.42;1.75;;;19.30;70.20;;;;;;5047631;28;20028;-68
2021/06/07 00:04:07;;;;;;;5.40;2.15;;;19.20;70.50;;;;;;5049231;28;20040;-68
2021/06/07 00:06:33;;;;;;;5.93;2.00;;;19.20;70.60;;;;;;5050046;28;20552;-69
2021/06/07 00:08:59;;;;;;;3.00;1.45;;;19.20;70.90;;;;;;5051256;28;20039;-68
2021/06/07 00:11:25;;;;;;;8.10;2.38;;;19.10;71.30;;;;;;5051271;28;20025;-68
2021/06/07 00:13:52;;;;;;;4.70;2.45;;;19.10;71.50;;;;;;5051170;28;20029;-68
2021/06/07 00:16:18;;;;;;;4.40;2.28;;;19.10;71.70;;;;;;5051205;28;20623;-68
2021/06/07 00:18:44;;;;;;;5.32;2.38;;;19.00;71.50;;;;;;5051102;28;20102;-68
2021/06/07 00:21:17;;;;;;;3.33;2.10;;;19.00;71.50;;;;;;5050991;28;20025;-68
2021/06/07 00:23:44;;;;;;;3.70;1.95;;;19.00;71.60;;;;;;5050997;28;20132;-68
2021/06/07 00:26:10;;;;;;;3.45;1.73;;;19.00;71.50;;;;;;5049721;28;20474;-68
2021/06/07 00:28:36;;;;;;;5.38;2.22;;;19.10;71.40;;;;;;5050918;28;20599;-69
2021/06/07 00:31:05;;;;;;;5.45;2.38;;;19.10;71.10;;;;;;5050912;28;20025;-68
2021/06/07 00:33:31;;;;;;;6.38;1.90;;;19.10;70.90;;;;;;5050856;28;20406;-68
2021/06/07 00:35:57;;;;;;;7.38;2.00;;;19.10;70.70;;;;;;5050639;28;20059;-68
2021/06/07 00:38:23;;;;;;;3.10;1.67;;;19.10;70.70;;;;;;5050841;28;20060;-68
2021/06/07 00:40:49;;;;;;;5.30;1.77;;;19.10;70.70;;;;;;5050765;28;20064;-68
2021/06/07 00:43:15;;;;;;;3.75;1.88;;;19.10;70.80;;;;;;5049112;28;20037;-68
2021/06/07 00:45:41;;;;;;;3.58;1.65;;;19.10;70.90;;;;;;5050711;28;20144;-69
2021/06/07 00:48:08;;;;;;;3.55;1.80;;;19.10;71.30;;;;;;5050628;28;20021;-69
2021/06/07 00:50:38;;;;;;;8.30;2.25;;;19.10;71.50;;;;;;5049352;28;20064;-69
2021/06/07 00:53:07;;;;;;;5.20;1.60;;;19.10;71.90;;;;;;5050307;28;20397;-68
2021/06/07 00:55:36;;;;;;;5.32;1.90;;;19.00;72.00;;;;;;5050403;28;20021;-68
2021/06/07 00:58:03;;;;;;;5.70;2.25;;;19.00;72.10;;;;;;5050434;28;20028;-68
2021/06/07 01:00:29;;;;;;;4.10;1.77;;;18.90;72.30;;;;;;5050342;28;20053;-68
2021/06/07 01:02:56;;;;;;;4.03;2.28;;;18.90;72.20;;;;;;5050321;28;20718;-68
2021/06/07 01:05:23;;;;;;;3.78;2.30;;;18.90;72.20;;;;;;5050037;28;20120;-68
2021/06/07 01:07:49;;;;;;;3.17;2.20;;;19.00;72.40;;;;;;5050140;28;20025;-68
2021/06/07 01:10:15;;;;;;;6.35;1.65;;;18.90;72.70;;;;;;5050295;28;20079;-68
2021/06/07 01:12:40;;;;;;;5.45;2.13;;;18.90;72.50;;;;;;5049951;28;20456;-68
2021/06/07 01:15:11;;;;;;;3.63;1.77;;;18.90;72.70;;;;;;5049254;28;20028;-68
2021/06/07 01:17:37;;;;;;;2.00;1.42;;;18.90;72.70;;;;;;5050039;28;20025;-68
2021/06/07 01:20:06;;;;;;;5.95;1.90;;;18.90;72.60;;;;;;5049956;28;20036;-68
2021/06/07 01:22:33;;;;;;;3.50;1.80;;;18.90;72.70;;;;;;5049869;28;20106;-68
2021/06/07 01:24:58;;;;;;;3.25;1.88;;;18.90;72.30;;;;;;5049963;28;20025;-69
2021/06/07 01:27:24;;;;;;;5.97;1.92;;;18.90;72.40;;;;;;5049839;28;20079;-66
2021/06/07 01:29:50;;;;;;;5.07;1.50;;;18.90;72.40;;;;;;5049725;28;20428;-67
2021/06/07 01:32:17;;;;;;;7.75;1.80;;;18.90;71.30;;;;;;5048737;28;20068;-68
2021/06/07 01:34:43;;;;;;;3.30;1.88;;;18.90;69.70;;;;;;5049639;28;20551;-68
2021/06/07 01:37:09;;;;;;;2.13;1.63;;;19.00;68.50;;;;;;5049568;28;20056;-67
2021/06/07 01:39:34;;;;;;;8.25;2.03;;;19.10;67.20;;;;;;5049549;28;20053;-68
2021/06/07 01:42:00;;;;;;;4.75;1.77;;;19.10;66.30;;;;;;5049485;28;20059;-68
2021/06/07 01:44:26;;;;;;;9.02;2.08;;;19.20;65.80;;;;;;5049679;28;20615;-68
2021/06/07 01:46:51;;;;;;;5.20;1.20;;;19.20;65.60;;;;;;5049514;28;20541;-68
2021/06/07 01:49:17;;;;;;;5.57;1.30;;;19.20;65.70;;;;;;5049262;28;20489;-68
2021/06/07 01:51:43;;;;;;;6.13;1.60;;;19.20;65.60;;;;;;5049357;28;20474;-67
2021/06/07 01:54:09;;;;;;;3.70;1.30;;;19.30;65.60;;;;;;5049129;28;20562;-67
2021/06/07 01:56:35;;;;;;;10.13;1.50;;;19.30;65.00;;;;;;5047881;28;20037;-67
2021/06/07 01:59:02;;;;;;;5.45;1.50;;;19.30;64.90;;;;;;5047706;28;20032;-67
2021/06/07 02:01:28;;;;;;;3.47;1.35;;;19.40;64.50;;;;;;5049044;28;20100;-67
2021/06/07 02:03:53;;;;;;;4.97;1.48;;;19.40;65.20;;;;;;5049039;28;20029;-68
2021/06/07 02:06:23;;;;;;;5.47;1.77;;;19.40;65.90;;;;;;5049142;28;20029;-68
2021/06/07 02:08:52;;;;;;;4.20;2.10;;;19.30;66.10;;;;;;5049039;28;20040;-67
2021/06/07 02:11:23;;;;;;;4.07;1.70;;;19.30;66.20;;;;;;5048968;28;20039;-67
2021/06/07 02:13:50;;;;;;;4.55;2.20;;;19.30;66.30;;;;;;5047663;28;20044;-67
2021/06/07 02:16:21;;;;;;;4.75;1.77;;;19.30;66.30;;;;;;5048863;28;20025;-68
2021/06/07 02:18:47;;;;;;;4.13;1.90;;;19.30;65.80;;;;;;5047767;28;20032;-67
2021/06/07 02:21:15;;;;;;;6.03;1.60;;;19.40;66.00;;;;;;5047382;28;20051;-68
2021/06/07 02:23:41;;;;;;;6.70;2.08;;;19.40;66.10;;;;;;5048794;28;20060;-67
2021/06/07 02:26:07;;;;;;;2.70;1.50;;;19.40;66.30;;;;;;5048645;28;20474;-68
2021/06/07 02:28:33;;;;;;;7.88;2.30;;;19.40;66.30;;;;;;5046564;28;20505;-68
2021/06/07 02:30:59;;;;;;;4.13;1.83;;;19.40;67.10;;;;;;5048487;28;20029;-67
2021/06/07 02:33:26;;;;;;;4.82;1.80;;;19.40;66.40;;;;;;5048433;28;20032;-68
2021/06/07 02:35:52;;;;;;;4.45;1.98;;;19.50;66.40;;;;;;5048367;28;20116;-67
2021/06/07 02:38:17;;;;;;;6.47;2.30;;;19.50;66.20;;;;;;5048518;28;20132;-68
2021/06/07 02:40:45;;;;;;;6.00;1.90;;;19.50;65.50;;;;;;5048404;28;20025;-68
2021/06/07 02:43:12;;;;;;;2.65;1.30;;;19.60;66.10;;;;;;5048264;28;20047;-68
2021/06/07 02:45:38;;;;;;;4.65;2.00;;;19.50;66.40;;;;;;5048383;28;20073;-67
2021/06/07 02:48:04;;;;;;;3.75;1.80;;;19.50;66.60;;;;;;5048486;28;20541;-67
2021/06/07 02:50:37;;;;;;;2.78;1.75;;;19.50;67.00;;;;;;5048421;28;20025;-67
2021/06/07 02:53:04;;;;;;;4.25;1.65;;;19.40;67.30;;;;;;5048187;28;20521;-67
2021/06/07 02:55:38;;;;;;;7.93;2.33;;;19.40;67.60;;;;;;5048486;28;20512;-67
2021/06/07 02:58:05;;;;;;;6.25;1.75;;;19.40;68.20;;;;;;5048357;28;20548;-67
2021/06/07 03:00:38;;;;;;;6.68;2.15;;;19.30;69.00;;;;;;5048295;28;20060;-69
2021/06/07 03:03:06;;;;;;;4.88;2.00;;;19.30;68.90;;;;;;5046797;28;20045;-68
2021/06/07 03:05:32;;;;;;;6.32;1.67;;;19.30;69.20;;;;;;5048307;28;20425;-67
2021/06/07 03:07:59;;;;;;;4.65;1.95;;;19.30;69.50;;;;;;5047002;28;20048;-67
2021/06/07 03:10:25;;;;;;;2.70;1.60;;;19.20;69.60;;;;;;5048231;28;20032;-67
2021/06/07 03:12:51;;;;;;;3.63;2.00;;;19.30;70.00;;;;;;5048133;28;20025;-67
2021/06/07 03:15:18;;;;;;;9.10;2.80;;;19.20;70.70;;;;;;5047942;28;20378;-68
2021/06/07 03:17:45;;;;;;;5.28;1.90;;;19.20;70.80;;;;;;5048254;28;20040;-68
2021/06/07 03:20:15;;;;;;;3.42;1.85;;;19.20;70.70;;;;;;5048061;28;20033;-68
2021/06/07 03:22:40;;;;;;;6.90;1.90;;;19.20;70.00;;;;;;5047744;28;20036;-68
2021/06/07 03:25:08;;;;;;;8.63;1.50;;;19.20;70.20;;;;;;5046515;28;20033;-65
2021/06/07 03:27:35;;;;;;;5.15;1.80;;;19.20;69.70;;;;;;5048080;28;20029;-68
2021/06/07 03:30:01;;;;;;;5.60;2.13;;;19.20;69.70;;;;;;5047968;28;20565;-67
2021/06/07 03:32:26;;;;;;;16.60;2.00;;;19.10;70.10;;;;;;5047794;28;20035;-67
2021/06/07 03:34:52;;;;;;;4.00;2.05;;;19.10;70.40;;;;;;5047716;28;20056;-67
2021/06/07 03:37:18;;;;;;;3.92;2.03;;;19.10;70.60;;;;;;5047837;28;20033;-68
2021/06/07 03:39:43;;;;;;;6.75;2.30;;;19.10;70.60;;;;;;5051025;28;20033;-67
2021/06/07 03:42:09;;;;;;;4.93;1.90;;;19.10;70.40;;;;;;5051729;28;20033;-68
2021/06/07 03:44:35;;;;;;;6.93;1.90;;;19.10;70.30;;;;;;5051712;28;20037;-68
2021/06/07 03:47:01;;;;;;;4.70;1.70;;;19.10;70.20;;;;;;5051692;28;20029;-67
2021/06/07 03:49:27;;;;;;;6.10;1.90;;;19.00;70.20;;;;;;5050428;28;20397;-68
2021/06/07 03:51:52;;;;;;;8.30;1.90;;;19.00;70.60;;;;;;5051662;28;20013;-67
2021/06/07 03:54:19;;;;;;;5.57;2.38;;;19.00;71.00;;;;;;5051657;28;20136;-68
2021/06/07 03:56:45;;;;;;;5.72;1.98;;;19.00;70.80;;;;;;5051629;28;20643;-68
2021/06/07 03:59:12;;;;;;;6.53;2.10;;;19.00;71.50;;;;;;5051566;28;20040;-68
2021/06/07 04:01:38;;;;;;;3.88;2.17;;;19.00;71.50;;;;;;5051679;28;20033;-68
2021/06/07 04:04:04;;;;;;;5.82;2.22;;;19.00;71.50;;;;;;5051387;28;20087;-67
2021/06/07 04:06:30;;;;;;;9.13;2.25;;;19.00;71.60;;;;;;5051377;28;20025;-67
2021/06/07 04:08:58;;;;;;;5.07;1.90;;;19.10;71.90;;;;;;5051316;28;20568;-67
2021/06/07 04:11:25;;;;;;;5.20;1.85;;;19.10;72.10;;;;;;5049791;28;20033;-67
2021/06/07 04:13:51;;;;;;;4.03;2.03;;;19.10;73.20;;;;;;5051249;28;20108;-67
2021/06/07 04:16:17;;;;;;;9.25;2.10;;;19.10;74.00;;;;;;5051095;28;20040;-67
2021/06/07 04:18:43;;;;;;;4.70;2.45;;;19.20;73.30;;;;;;5051159;28;20029;-68
2021/06/07 04:21:10;;;;;;;3.67;2.08;;;19.20;72.10;;;;;;5050939;28;20449;-67
2021/06/07 04:23:35;;;;;;;5.20;2.35;;;19.30;71.30;;;;;;5051135;28;20433;-67
2021/06/07 04:26:01;;;;;;;3.58;1.95;;;19.40;70.50;;;;;;5051312;28;20032;-68
2021/06/07 04:28:27;;;;;;;7.75;2.60;;;19.40;70.30;;;;;;5050941;28;20041;-68
2021/06/07 04:30:53;;;;;;;7.90;2.00;;;19.50;69.40;;;;;;5049612;28;20040;-68
2021/06/07 04:33:19;;;;;;;4.20;1.95;;;19.60;70.20;;;;;;5050737;28;20153;-67
2021/06/07 04:35:45;;;;;;;3.90;1.85;;;19.70;71.00;;;;;;5050895;28;20095;-67
2021/06/07 04:38:10;;;;;;;7.18;2.25;;;19.80;71.40;;;;;;5049486;28;20024;-67
2021/06/07 04:40:38;;;;;;;6.20;2.28;;;19.90;71.10;;;;;;5050857;28;20112;-68
2021/06/07 04:43:07;;;;;;;7.15;2.40;;;20.00;71.00;;;;;;5050505;28;20527;-68
2021/06/07 04:45:34;;;;;;;4.15;2.08;;;20.20;70.10;;;;;;5050924;28;20021;-68
2021/06/07 04:48:00;;;;;;;4.57;1.85;;;20.40;70.20;;;;;;5050706;28;20037;-67
2021/06/07 04:50:28;;;;;;;5.10;2.17;;;20.60;70.10;;;;;;5049582;28;20118;-68
2021/06/07 04:53:00;;;;;;;9.25;1.92;;;20.80;66.90;;;;;;5050897;28;20056;-68
2021/06/07 04:55:35;;;;;;;7.22;2.17;;;21.00;66.10;;;;;;5050397;28;20025;-68
2021/06/07 04:58:05;;;;;;;5.53;1.90;;;21.20;64.90;;;;;;5050413;28;20025;-68
2021/06/07 05:00:32;;;;;;;6.53;1.75;;;21.40;63.80;;;;;;5050295;28;20422;-68
2021/06/07 05:02:58;;;;;;;10.85;2.40;;;21.50;63.90;;;;;;5050247;28;20037;-68
2021/06/07 05:05:24;;;;;;;5.30;1.77;;;21.70;64.60;;;;;;5048805;28;20040;-68
2021/06/07 05:07:49;;;;;;;4.22;2.00;;;22.10;63.80;;;;;;5050207;28;20025;-67
2021/06/07 05:10:16;;;;;;;6.43;1.73;;;22.40;61.40;;;;;;5050446;28;20108;-68
2021/06/07 05:12:43;;;;;;;5.72;2.13;;;22.80;60.40;;;;;;5050016;28;20040;-68
2021/06/07 05:15:10;;;;;;;3.55;1.90;;;23.20;59.80;;;;;;5049879;28;20075;-69
2021/06/07 05:17:37;;;;;;;6.88;1.90;;;23.60;57.00;;;;;;5050198;28;20076;-67
2021/06/07 05:20:05;;;;;;;4.80;2.13;;;23.80;55.70;;;;;;5049986;28;20017;-68
2021/06/07 05:22:31;;;;;;;6.20;1.50;;;23.90;54.90;;;;;;5049786;28;20390;-68
2021/06/07 05:24:57;;;;;;;2.70;1.60;;;24.10;55.20;;;;;;5049963;28;20032;-67
2021/06/07 05:27:22;;;;;;;4.68;1.83;;;24.20;53.80;;;;;;5049699;28;20029;-68
2021/06/07 05:29:48;;;;;;;2.55;1.55;;;24.30;52.60;;;;;;5049916;28;20025;-68
2021/06/07 05:32:14;;;;;;;6.25;2.08;;;24.50;52.80;;;;;;5049909;28;20056;-68
2021/06/07 05:34:39;;;;;;;5.20;2.05;;;24.80;53.30;;;;;;5049428;28;20052;-68
2021/06/07 05:37:05;;;;;;;8.85;2.30;;;25.20;52.00;;;;;;5049409;28;20041;-68
2021/06/07 05:39:32;;;;;;;11.73;2.05;;;25.50;48.50;;;;;;5049520;28;20074;-68
2021/06/07 05:41:57;;;;;;;6.13;1.67;;;25.80;48.50;;;;;;5049399;28;20108;-68
2021/06/07 05:44:23;;;;;;;12.82;2.47;;;26.30;47.40;;;;;;5049427;28;20128;-68
2021/06/07 05:46:51;;;;;;;13.05;2.00;;;26.70;45.90;;;;;;5049497;28;20032;-68
2021/06/07 05:49:17;;;;;;;4.07;1.65;;;27.00;45.20;;;;;;5049174;28;20024;-68
2021/06/07 05:51:43;;;;;;;8.32;1.70;;;27.60;43.20;;;;;;5049155;28;20438;-68
2021/06/07 05:54:08;;;;;;;3.03;1.60;;;28.70;40.70;;;;;;5049146;28;20029;-68
2021/06/07 05:56:37;;;;;;;4.63;1.52;;;29.70;38.30;;;;;;5049213;28;20409;-67
2021/06/07 05:59:07;;;;;;;17.45;3.42;;;29.90;37.30;;;;;;5047676;28;20083;-68
2021/06/07 06:01:36;;;;;;;2.88;1.67;;;29.70;38.00;;;;;;5048706;28;20071;-69
2021/06/07 06:04:20;;;;;;;8.07;1.45;;;30.10;36.00;;;;;;5049097;28;20087;-69
2021/06/07 06:06:46;;;;;;;3.92;1.70;;;30.60;35.90;;;;;;5049017;28;20094;-68
2021/06/07 06:09:11;;;;;;;10.52;1.95;;;31.10;35.40;;;;;;5048864;28;20099;-68
2021/06/07 06:11:37;;;;;;;2.72;1.40;;;32.10;34.60;;;;;;5049090;28;20036;-68
2021/06/07 06:14:03;;;;;;;3.13;1.15;;;32.80;32.10;;;;;;5048959;28;20051;-69
2021/06/07 06:16:28;;;;;;;13.68;2.67;;;33.90;30.80;;;;;;5049066;28;20024;-69
2021/06/07 06:18:54;;;;;;;10.27;1.90;;;34.10;29.00;;;;;;5048878;28;20044;-69
2021/06/07 06:21:20;;;;;;;4.05;1.95;;;34.60;29.60;;;;;;5048579;28;20029;-69
2021/06/07 06:23:46;;;;;;;3.97;1.60;;;35.90;28.70;;;;;;5048756;28;20073;-68
2021/06/07 06:26:12;;;;;;;5.25;1.70;;;36.00;27.50;;;;;;5048805;28;20103;-69
2021/06/07 06:28:38;;;;;;;4.78;1.27;;;36.00;26.90;;;;;;5048625;28;20104;-69
2021/06/07 06:31:05;;;;;;;6.85;1.75;;;36.00;27.50;;;;;;5048650;28;20079;-69
2021/06/07 06:33:32;;;;;;;3.00;1.50;;;35.90;27.60;;;;;;5048568;28;20493;-69
2021/06/07 06:35:58;;;;;;;4.05;1.40;;;36.40;26.50;;;;;;5048569;28;20045;-70
2021/06/07 06:38:24;;;;;;;2.38;1.67;;;37.00;26.40;;;;;;5047255;28;20078;-69
2021/06/07 06:40:52;;;;;;;2.30;1.42;;;37.70;26.10;;;;;;5048467;28;20036;-69
2021/06/07 06:43:18;;;;;;;2.85;1.50;;;37.90;23.80;;;;;;5048150;28;20086;-69
2021/06/07 06:45:44;;;;;;;7.82;1.45;;;37.60;23.90;;;;;;5048511;28;20025;-69
2021/06/07 06:48:09;;;;;;;3.35;1.33;;;37.20;24.10;;;;;;5048735;28;20063;-71
2021/06/07 06:50:39;;;;;;;3.65;1.40;;;36.60;25.10;;;;;;5048714;28;20033;-68
2021/06/07 06:53:11;;;;;;;1.95;1.25;;;36.70;24.60;;;;;;5048231;28;20029;-68
2021/06/07 06:55:37;;;;;;;3.20;1.20;;;36.80;25.10;;;;;;5048339;28;20489;-69
2021/06/07 06:58:04;;;;;;;3.00;1.60;;;36.40;24.50;;;;;;5048274;28;20025;-69
2021/06/07 07:00:36;;;;;;;3.28;1.63;;;36.00;25.40;;;;;;5048415;28;20025;-68
2021/06/07 07:03:06;;;;;;;3.25;1.40;;;35.90;25.50;;;;;;5047010;28;20036;-69
2021/06/07 07:05:32;;;;;;;3.17;1.30;;;35.90;26.10;;;;;;5048270;28;20029;-70
2021/06/07 07:07:58;;;;;;;4.90;1.55;;;36.20;25.90;;;;;;5048135;28;20032;-69
2021/06/07 07:10:23;;;;;;;5.28;1.20;;;36.60;25.60;;;;;;5046787;28;20898;-70
2021/06/07 07:12:49;;;;;;;4.88;1.30;;;36.20;25.70;;;;;;5047950;28;20111;-69
2021/06/07 07:15:15;;;;;;;2.25;1.20;;;36.10;25.50;;;;;;5051892;28;20226;-69
2021/06/07 07:17:41;;;;;;;4.43;1.50;;;36.00;25.30;;;;;;5052451;28;20063;-70
2021/06/07 07:20:07;;;;;;;7.78;1.55;;;35.90;25.60;;;;;;5052258;28;20787;-69
2021/06/07 07:22:34;;;;;;;3.22;1.40;;;36.50;25.30;;;;;;5052029;28;20044;-69
2021/06/07 07:24:59;;;;;;;3.85;1.40;;;35.90;25.30;;;;;;5051973;28;20147;-69
2021/06/07 07:27:25;;;;;;;6.13;1.20;;;35.30;25.50;;;;;;5052041;28;20497;-69
2021/06/07 07:29:51;;;;;;;8.20;1.80;;;35.40;25.30;;;;;;5052031;28;20043;-68
2021/06/07 07:32:17;;;;;;;3.90;1.40;;;35.40;25.20;;;;;;5052120;28;20492;-69
2021/06/07 07:34:43;;;;;;;7.05;1.42;;;35.40;25.20;;;;;;5051797;28;20509;-69
2021/06/07 07:37:09;;;;;;;9.70;1.50;;;34.90;25.90;;;;;;5051751;28;20025;-70
2021/06/07 07:39:36;;;;;;;2.53;1.30;;;34.50;26.40;;;;;;5051853;28;20099;-69
2021/06/07 07:42:03;;;;;;;7.78;1.50;;;34.40;26.30;;;;;;5051743;28;20107;-69
2021/06/07 07:44:29;;;;;;;5.95;1.15;;;35.00;26.60;;;;;;5051686;28;20423;-69
2021/06/07 07:46:55;;;;;;;4.28;1.65;;;35.10;26.50;;;;;;5051724;28;20043;-69
2021/06/07 07:49:21;;;;;;;4.07;1.55;;;34.70;26.40;;;;;;5051540;28;20111;-69
2021/06/07 07:51:47;;;;;;;6.13;1.40;;;34.50;27.30;;;;;;5051480;28;20182;-68
2021/06/07 07:54:14;;;;;;;6.78;1.58;;;34.60;27.40;;;;;;5051390;28;20514;-69
2021/06/07 07:56:40;;;;;;;9.70;1.67;;;34.50;27.80;;;;;;5051351;28;20383;-69
2021/06/07 07:59:06;;;;;;;3.50;1.95;;;34.30;27.10;;;;;;5051429;28;20033;-70
2021/06/07 08:01:32;;;;;;;7.43;1.60;;;34.10;28.30;;;;;;5051481;28;20021;-68
2021/06/07 08:04:00;;;;;;;5.55;2.03;;;34.10;28.20;;;;;;5051296;28;20408;-69
2021/06/07 08:06:26;;;;;;;2.88;1.40;;;34.80;27.50;;;;;;5051330;28;20032;-68
2021/06/07 08:08:51;;;;;;;5.30;1.75;;;35.10;27.00;;;;;;5049962;28;20032;-69
2021/06/07 08:11:17;;;;;;;3.95;1.30;;;34.80;26.20;;;;;;5050896;28;20039;-69
2021/06/07 08:13:43;;;;;;;3.95;1.70;;;34.90;26.90;;;;;;5051324;28;20118;-69
2021/06/07 08:16:09;;;;;;;3.33;1.40;;;35.70;26.60;;;;;;5051156;28;20056;-69
2021/06/07 08:18:34;;;;;;;3.92;1.60;;;35.50;25.80;;;;;;5051183;28;20028;-69
2021/06/07 08:21:00;;;;;;;2.53;1.40;;;35.90;25.90;;;;;;5051108;28;20037;-68
2021/06/07 08:23:26;;;;;;;7.82;1.30;;;35.80;26.20;;;;;;5049830;28;20045;-69
2021/06/07 08:25:51;;;;;;;8.05;1.60;;;35.80;26.00;;;;;;5050895;28;20029;-70
2021/06/07 08:28:17;;;;;;;7.38;1.35;;;36.20;25.80;;;;;;5051146;28;20620;-70
2021/06/07 08:30:43;;;;;;;4.05;1.65;;;36.10;25.30;;;;;;5051014;28;20425;-69
2021/06/07 08:33:09;;;;;;;3.55;1.42;;;36.60;24.80;;;;;;5050719;28;20028;-70
2021/06/07 08:35:35;;;;;;;4.68;1.30;;;36.60;25.20;;;;;;5050834;28;20414;-69
2021/06/07 08:38:00;;;;;;;3.15;1.40;;;36.60;25.60;;;;;;5050782;28;20126;-69
2021/06/07 08:40:26;;;;;;;1.70;1.17;;;37.00;24.20;;;;;;5049832;28;20049;-69
2021/06/07 08:42:52;;;;;;;5.45;1.70;;;36.70;24.00;;;;;;5050530;28;20263;-66
2021/06/07 08:45:21;;;;;;;7.45;1.60;;;36.10;24.80;;;;;;5050473;28;20029;-69
2021/06/07 08:47:49;;;;;;;3.55;1.70;;;36.00;24.60;;;;;;5050699;28;20028;-69
2021/06/07 08:50:21;;;;;;;4.55;1.13;;;36.00;25.70;;;;;;5050430;28;20405;-69
2021/06/07 08:52:47;;;;;;;8.85;1.63;;;36.20;25.30;;;;;;5050167;28;20748;-68
2021/06/07 08:55:16;;;;;;;3.83;1.55;;;36.30;25.90;;;;;;5050171;28;20029;-69
2021/06/07 08:57:45;;;;;;;10.27;1.80;;;36.40;24.80;;;;;;5050369;28;20402;-69
2021/06/07 09:00:15;;;;;;;4.10;1.38;;;36.60;25.20;;;;;;5050568;28;20413;-69
2021/06/07 09:02:43;;;;;;;4.40;1.50;;;36.60;25.00;;;;;;5050176;28;20048;-69
2021/06/07 09:05:09;;;;;;;4.60;1.52;;;36.90;23.80;;;;;;5050099;28;20032;-69
2021/06/07 09:08:00;;;;;;;2.15;1.02;;;36.80;25.30;;;;;;5048918;28;20040;-69
2021/06/07 09:10:29;;;;;;;2.95;1.38;;;36.20;24.70;;;;;;5050489;28;20029;-69
2021/06/07 09:12:58;;;;;;;5.38;1.33;;;36.30;25.10;;;;;;5048920;28;20048;-69
2021/06/07 09:15:43;;;;;;;2.55;1.73;;;35.80;26.00;;;;;;5050528;28;20040;-69
2021/06/07 09:18:15;;;;;;;1.75;1.05;;;36.10;26.00;;;;;;5050071;28;20524;-69
2021/06/07 09:20:42;;;;;;;5.47;1.85;;;36.40;25.40;;;;;;5050065;28;20025;-69
2021/06/07 09:23:13;;;;;;;5.20;1.33;;;36.20;24.90;;;;;;5050036;28;20109;-68
2021/06/07 09:25:42;;;;;;;3.67;1.10;;;36.20;26.30;;;;;;5048689;28;20058;-68
2021/06/07 09:28:11;;;;;;;2.78;1.40;;;36.30;25.50;;;;;;5050031;28;20468;-69
2021/06/07 09:30:44;;;;;;;3.38;1.23;;;36.10;24.90;;;;;;5049772;28;20040;-69
2021/06/07 09:33:29;;;;;;;4.78;1.30;;;35.40;25.30;;;;;;5048201;28;20041;-69
2021/06/07 09:36:21;;;;;;;3.53;1.35;;;35.30;25.60;;;;;;5049202;28;20041;-68
2021/06/07 09:39:06;;;;;;;6.28;1.45;;;35.00;25.50;;;;;;5049648;28;20056;-69
2021/06/07 09:42:08;;;;;;;4.47;1.42;;;34.80;25.30;;;;;;5049648;28;20033;-69
2021/06/07 09:44:36;;;;;;;7.55;1.45;;;34.60;25.80;;;;;;5049491;28;20033;-67
2021/06/07 09:47:17;;;;;;;4.18;1.83;;;34.40;25.60;;;;;;5049346;28;20478;-68
2021/06/07 09:49:55;;;;;;;3.85;1.60;;;34.70;26.20;;;;;;5049467;28;20036;-69
2021/06/07 09:52:34;;;;;;;6.00;1.70;;;35.10;26.10;;;;;;5049254;28;20032;-68
2021/06/07 09:55:05;;;;;;;3.92;1.30;;;35.20;26.50;;;;;;5047838;28;20609;-68
2021/06/07 09:57:50;;;;;;;5.13;1.30;;;34.40;26.30;;;;;;5049380;28;20029;-68
2021/06/07 10:00:49;;;;;;;3.03;1.05;;;33.70;27.00;;;;;;5049352;28;20033;-68
2021/06/07 10:03:21;;;;;;;7.00;1.58;;;32.30;26.80;;;;;;5025812;28;20048;-68
2021/06/07 10:05:49;;;;;;;4.05;1.42;;;31.50;28.50;;;;;;5049170;28;20501;-69
2021/06/07 10:08:15;;;;;;;2.47;1.40;;;31.30;29.10;;;;;;5049516;28;20810;-68
2021/06/07 10:10:41;;;;;;;3.28;1.08;;;31.00;29.00;;;;;;5049182;28;20386;-69
2021/06/07 10:13:12;;;;;;;5.93;1.73;;;30.90;29.40;;;;;;5048891;28;20036;-67
2021/06/07 10:15:58;;;;;;;2.85;1.48;;;30.60;30.40;;;;;;5049174;28;20097;-68
2021/06/07 10:18:24;;;;;;;4.43;1.85;;;30.70;30.30;;;;;;5049144;28;20496;-67
2021/06/07 10:20:52;;;;;;;3.03;1.40;;;31.00;32.40;;;;;;5048716;28;20033;-68
2021/06/07 10:23:25;;;;;;;3.63;1.10;;;31.20;31.60;;;;;;5048475;28;20043;-68
2021/06/07 10:25:53;;;;;;;6.68;1.13;;;31.30;30.90;;;;;;5048761;28;20021;-68
2021/06/07 10:28:25;;;;;;;2.50;1.30;;;31.60;31.00;;;;;;5048604;28;20036;-68
2021/06/07 10:30:50;;;;;;;3.45;1.27;;;31.70;30.10;;;;;;5048652;28;20025;-68
2021/06/07 10:33:28;;;;;;;2.47;1.33;;;31.70;30.10;;;;;;5048437;28;20403;-68
2021/06/07 10:35:55;;;;;;;2.53;1.15;;;31.80;29.80;;;;;;5048397;28;20044;-68
2021/06/07 10:38:47;;;;;;;5.43;1.52;;;31.90;28.30;;;;;;5048556;28;20032;-68
2021/06/07 10:41:27;;;;;;;7.28;1.90;;;31.90;29.80;;;;;;5047550;28;20279;-67
2021/06/07 10:43:55;;;;;;;3.67;1.10;;;31.90;30.20;;;;;;5048540;28;20047;-68
2021/06/07 10:46:28;;;;;;;4.28;1.33;;;32.00;29.60;;;;;;5048553;28;20060;-68
2021/06/07 10:48:56;;;;;;;2.28;1.27;;;32.20;29.20;;;;;;5047611;28;20082;-68
2021/06/07 10:51:29;;;;;;;3.78;1.35;;;32.40;28.50;;;;;;5048206;28;20033;-67
2021/06/07 10:54:33;;;;;;;4.10;1.10;;;32.40;28.10;;;;;;5048368;28;20026;-67
2021/06/07 10:57:20;;;;;;;6.70;1.17;;;32.40;28.40;;;;;;5048438;28;20036;-69
2021/06/07 10:59:51;;;;;;;2.20;1.02;;;32.30;26.90;;;;;;5048336;28;20044;-68
2021/06/07 11:02:18;;;;;;;2.45;1.17;;;31.50;26.00;;;;;;5048266;28;20090;-67
2021/06/07 11:04:44;;;;;;;4.35;1.10;;;31.60;28.00;;;;;;5048065;28;20037;-68
2021/06/07 11:07:12;;;;;;;5.05;1.55;;;31.70;28.70;;;;;;5048357;28;20074;-68
2021/06/07 11:10:15;;;;;;;3.42;1.42;;;31.80;28.60;;;;;;5048216;28;20041;-67
2021/06/07 11:12:42;;;;;;;4.60;1.38;;;31.70;28.70;;;;;;5048102;28;20501;-68
2021/06/07 11:15:14;;;;;;;5.13;1.20;;;31.50;28.80;;;;;;5048009;28;20024;-68
2021/06/07 11:17:43;;;;;;;4.35;1.30;;;31.50;28.40;;;;;;5048194;28;20060;-68
2021/06/07 11:20:10;;;;;;;2.63;0.95;;;31.20;28.70;;;;;;5047943;28;20527;-68
2021/06/07 11:23:05;;;;;;;2.65;1.20;;;31.10;28.20;;;;;;5046551;28;20472;-68
2021/06/07 11:25:52;;;;;;;3.47;1.17;;;30.80;28.60;;;;;;5047996;28;20017;-68
2021/06/07 11:28:31;;;;;;;5.63;1.27;;;30.40;30.70;;;;;;5047837;28;20397;-69
2021/06/07 11:30:58;;;;;;;6.57;1.70;;;30.00;29.40;;;;;;5048025;28;20021;-68
2021/06/07 11:33:24;;;;;;;4.97;1.35;;;29.70;30.30;;;;;;5047892;28;20033;-68
2021/06/07 11:35:50;;;;;;;3.80;1.90;;;29.50;30.90;;;;;;5047837;28;20049;-67
2021/06/07 11:38:36;;;;;;;3.97;1.40;;;29.00;31.90;;;;;;5046792;28;20044;-68
2021/06/07 11:41:26;;;;;;;5.20;1.23;;;28.90;32.80;;;;;;5047908;28;20167;-68
2021/06/07 11:43:53;;;;;;;3.30;1.40;;;28.50;33.00;;;;;;5046766;28;20509;-68
2021/06/07 11:46:31;;;;;;;5.63;1.30;;;28.20;33.90;;;;;;5047780;28;20025;-68
2021/06/07 11:49:04;;;;;;;2.03;1.20;;;28.00;33.60;;;;;;5047927;28;20063;-67
2021/06/07 11:51:31;;;;;;;6.30;1.73;;;27.90;35.20;;;;;;5047778;28;20033;-68
2021/06/07 11:53:57;;;;;;;5.80;1.20;;;27.90;34.10;;;;;;5047610;28;20028;-68
2021/06/07 11:56:23;;;;;;;10.30;2.47;;;27.90;34.50;;;;;;5047812;28;20029;-68
2021/06/07 11:58:49;;;;;;;4.90;1.75;;;27.90;34.60;;;;;;5047726;28;20028;-68
2021/06/07 12:01:15;;;;;;;3.45;1.42;;;28.00;35.10;;;;;;5051000;28;20036;-67
2021/06/07 12:03:45;;;;;;;5.63;1.60;;;27.90;35.40;;;;;;5051436;28;20601;-69
2021/06/07 12:06:12;;;;;;;3.72;1.67;;;28.00;36.10;;;;;;5051368;28;20032;-68
2021/06/07 12:08:38;;;;;;;2.35;1.13;;;28.20;37.10;;;;;;5051331;28;20067;-68
2021/06/07 12:11:04;;;;;;;5.47;1.75;;;28.40;36.40;;;;;;5051180;28;20021;-68
2021/06/07 12:13:35;;;;;;;9.00;1.60;;;28.50;36.20;;;;;;5051123;28;20375;-67
2021/06/07 12:16:08;;;;;;;4.78;1.00;;;28.80;35.40;;;;;;5051289;28;20029;-68
2021/06/07 12:18:43;;;;;;;5.60;1.50;;;29.10;35.30;;;;;;5051198;28;20098;-68
2021/06/07 12:21:14;;;;;;;1.67;0.95;;;29.50;34.00;;;;;;5051100;28;20028;-68
2021/06/07 12:23:44;;;;;;;6.75;1.30;;;29.80;33.70;;;;;;5051100;28;20044;-68
2021/06/07 12:29:24;;;;;;;6.00;1.88;;;30.50;31.80;;;;;;5050886;28;20401;-68
2021/06/07 12:32:11;;;;;;;6.50;1.45;;;30.80;30.90;;;;;;5050881;28;20040;-68
2021/06/07 12:34:57;;;;;;;3.65;1.48;;;31.00;30.80;;;;;;5050709;28;20501;-68
2021/06/07 12:37:35;;;;;;;7.88;1.40;;;31.20;30.60;;;;;;5050694;28;20025;-67
2021/06/07 12:40:14;;;;;;;4.15;1.42;;;31.20;30.60;;;;;;5049735;28;20119;-68
2021/06/07 12:42:41;;;;;;;11.38;1.58;;;31.00;30.20;;;;;;5050525;28;20862;-69
2021/06/07 12:45:10;;;;;;;5.45;1.67;;;30.90;29.50;;;;;;5050549;28;20040;-68
2021/06/07 12:47:36;;;;;;;8.77;1.38;;;30.70;30.70;;;;;;5050431;28;20485;-69
2021/06/07 12:50:15;;;;;;;4.00;1.30;;;30.60;31.10;;;;;;5050502;28;20029;-68
2021/06/07 12:52:41;;;;;;;8.30;1.63;;;30.40;31.70;;;;;;5050316;28;20039;-69
2021/06/07 12:55:08;;;;;;;6.72;2.03;;;29.90;33.50;;;;;;5049996;28;20048;-66
2021/06/07 12:57:34;;;;;;;8.50;1.90;;;29.60;35.70;;;;;;5049669;28;20032;-67